Hovedside
METAR-TAF:

METAR-TAF

Lufthavner :

Jefferson County International Airport

Port Townsend, Washington, USA

breddegrad: 48-03-14N, lengdegrad: 122-48-38W, høyde over havet: 33 m

Gjeldene værobservasjon

Denne rapporten ble laget for 24 minutter siden, klokken 21:55 UTC
Vind 6 kt fra Øst
Temperatur 20°C
Luftfuktighet 64%
Trykk 1023 hPa
Sikt: 16.1 km
Skyfri himmel

METAR: K0S9 172155Z 08006KT 10SM CLR 20/13 A3022 RMK AO2 P0011 K0S9 AWOS NOTAMED OSM 1730 TO 2359 HRS UTC

Tid: 15:19 (22:19 UTC)


TAF: fraværende

Værobservasjoner og værvarsel for over 4000 flyplasser (METAR- og TAF-rapporter).

Tilgjengelige stasjoner er representert av de røde og gule prikkene på kartet.

Hold musepekeren over prikken for å se navnet på stasjonen.

Klikk så for å se værobservasjoner og -varsler.

For å forandre kartet kan du klikke på den grønne knappen med svart kryss for å zoome inn, på den grønne knappen med strek for å zoome ut, eller på de grønne pilene for å se tilstøtende kart.


METAR-TAF: